sensor_id;sensor_type;location;lat;lon;timestamp;pressure;altitude;pressure_sealevel;temperature;humidity
6204;BME280;3135;42.602;23.468;2023-06-19T00:00:08;92810.03;;;15.32;100.00
6204;BME280;3135;42.602;23.468;2023-06-19T00:02:42;92836.47;;;15.48;100.00
6204;BME280;3135;42.602;23.468;2023-06-19T00:05:09;92835.50;;;15.52;100.00
6204;BME280;3135;42.602;23.468;2023-06-19T00:07:36;92830.78;;;15.41;100.00
6204;BME280;3135;42.602;23.468;2023-06-19T00:10:03;92814.97;;;15.39;100.00
6204;BME280;3135;42.602;23.468;2023-06-19T00:12:28;92781.38;;;15.19;100.00
6204;BME280;3135;42.602;23.468;2023-06-19T00:14:54;92797.84;;;15.35;100.00
6204;BME280;3135;42.602;23.468;2023-06-19T00:17:19;92819.69;;;15.33;100.00
6204;BME280;3135;42.602;23.468;2023-06-19T00:19:45;92825.06;;;15.33;100.00
6204;BME280;3135;42.602;23.468;2023-06-19T00:22:11;92821.28;;;15.34;100.00
6204;BME280;3135;42.602;23.468;2023-06-19T00:24:37;92816.22;;;15.42;100.00
6204;BME280;3135;42.602;23.468;2023-06-19T00:27:02;92808.78;;;15.39;100.00
6204;BME280;3135;42.602;23.468;2023-06-19T00:29:29;92798.75;;;15.48;100.00
6204;BME280;3135;42.602;23.468;2023-06-19T00:31:54;92807.81;;;15.43;100.00
6204;BME280;3135;42.602;23.468;2023-06-19T00:34:20;92812.88;;;15.45;100.00
6204;BME280;3135;42.602;23.468;2023-06-19T00:36:45;92789.44;;;15.28;100.00
6204;BME280;3135;42.602;23.468;2023-06-19T00:39:12;92812.25;;;15.39;100.00
6204;BME280;3135;42.602;23.468;2023-06-19T00:41:38;92802.63;;;15.29;100.00
6204;BME280;3135;42.602;23.468;2023-06-19T00:44:04;92807.19;;;15.38;100.00
6204;BME280;3135;42.602;23.468;2023-06-19T00:46:30;92802.44;;;15.34;100.00
6204;BME280;3135;42.602;23.468;2023-06-19T00:48:56;92797.06;;;15.26;100.00
6204;BME280;3135;42.602;23.468;2023-06-19T00:51:22;92802.59;;;15.12;100.00
6204;BME280;3135;42.602;23.468;2023-06-19T00:53:48;92810.69;;;15.12;100.00
6204;BME280;3135;42.602;23.468;2023-06-19T00:56:13;92802.28;;;15.05;100.00
6204;BME280;3135;42.602;23.468;2023-06-19T00:58:40;92820.03;;;15.06;100.00
6204;BME280;3135;42.602;23.468;2023-06-19T01:01:06;92811.31;;;15.09;100.00
6204;BME280;3135;42.602;23.468;2023-06-19T01:03:31;92795.78;;;14.97;100.00
6204;BME280;3135;42.602;23.468;2023-06-19T01:05:58;92779.94;;;14.96;100.00
6204;BME280;3135;42.602;23.468;2023-06-19T01:11:09;92794.22;;;14.88;100.00
6204;BME280;3135;42.602;23.468;2023-06-19T01:13:55;92804.81;;;15.01;100.00
6204;BME280;3135;42.602;23.468;2023-06-19T01:16:25;92785.03;;;14.89;100.00
6204;BME280;3135;42.602;23.468;2023-06-19T01:18:51;92780.41;;;14.72;100.00
6204;BME280;3135;42.602;23.468;2023-06-19T01:21:18;92800.97;;;14.76;100.00
6204;BME280;3135;42.602;23.468;2023-06-19T01:23:44;92800.84;;;14.73;100.00
6204;BME280;3135;42.602;23.468;2023-06-19T01:26:11;92803.22;;;14.74;100.00
6204;BME280;3135;42.602;23.468;2023-06-19T01:28:41;92793.06;;;14.71;100.00
6204;BME280;3135;42.602;23.468;2023-06-19T01:31:38;92785.16;;;14.66;100.00
6204;BME280;3135;42.602;23.468;2023-06-19T01:34:08;92792.59;;;14.61;100.00
6204;BME280;3135;42.602;23.468;2023-06-19T01:36:36;92788.47;;;14.54;100.00
6204;BME280;3135;42.602;23.468;2023-06-19T01:39:03;92792.44;;;14.74;100.00
6204;BME280;3135;42.602;23.468;2023-06-19T01:41:29;92789.56;;;14.62;100.00
6204;BME280;3135;42.602;23.468;2023-06-19T01:43:56;92755.00;;;14.29;100.00
6204;BME280;3135;42.602;23.468;2023-06-19T01:46:22;92787.50;;;14.50;100.00
6204;BME280;3135;42.602;23.468;2023-06-19T01:48:48;92763.56;;;14.31;100.00
6204;BME280;3135;42.602;23.468;2023-06-19T01:51:13;92789.41;;;14.50;100.00
6204;BME280;3135;42.602;23.468;2023-06-19T01:53:39;92786.03;;;14.36;100.00
6204;BME280;3135;42.602;23.468;2023-06-19T01:56:04;92783.81;;;14.38;100.00
6204;BME280;3135;42.602;23.468;2023-06-19T01:58:30;92799.06;;;14.51;100.00
6204;BME280;3135;42.602;23.468;2023-06-19T02:00:55;92801.06;;;14.45;100.00
6204;BME280;3135;42.602;23.468;2023-06-19T02:03:20;92809.59;;;14.47;100.00
6204;BME280;3135;42.602;23.468;2023-06-19T02:05:46;92802.66;;;14.46;100.00
6204;BME280;3135;42.602;23.468;2023-06-19T02:08:12;92812.00;;;14.49;100.00
6204;BME280;3135;42.602;23.468;2023-06-19T02:10:37;92803.72;;;14.37;100.00
6204;BME280;3135;42.602;23.468;2023-06-19T02:13:03;92800.22;;;14.27;100.00
6204;BME280;3135;42.602;23.468;2023-06-19T02:15:28;92820.63;;;14.28;100.00
6204;BME280;3135;42.602;23.468;2023-06-19T02:17:55;92793.38;;;14.13;100.00
6204;BME280;3135;42.602;23.468;2023-06-19T02:20:22;92816.34;;;14.27;100.00
6204;BME280;3135;42.602;23.468;2023-06-19T02:22:49;92826.19;;;14.41;100.00
6204;BME280;3135;42.602;23.468;2023-06-19T02:25:15;92823.38;;;14.46;100.00
6204;BME280;3135;42.602;23.468;2023-06-19T02:27:41;92826.31;;;14.27;100.00
6204;BME280;3135;42.602;23.468;2023-06-19T02:30:06;92807.63;;;14.22;100.00
6204;BME280;3135;42.602;23.468;2023-06-19T02:32:32;92818.53;;;14.25;100.00
6204;BME280;3135;42.602;23.468;2023-06-19T02:34:58;92820.75;;;14.23;100.00
6204;BME280;3135;42.602;23.468;2023-06-19T02:37:23;92803.66;;;14.19;100.00
6204;BME280;3135;42.602;23.468;2023-06-19T02:39:49;92819.50;;;14.29;100.00
6204;BME280;3135;42.602;23.468;2023-06-19T02:42:14;92785.88;;;14.01;100.00
6204;BME280;3135;42.602;23.468;2023-06-19T02:44:40;92812.97;;;14.13;100.00
6204;BME280;3135;42.602;23.468;2023-06-19T02:47:06;92835.31;;;14.22;100.00
6204;BME280;3135;42.602;23.468;2023-06-19T02:49:31;92815.16;;;14.02;100.00
6204;BME280;3135;42.602;23.468;2023-06-19T02:51:57;92834.66;;;14.17;100.00
6204;BME280;3135;42.602;23.468;2023-06-19T02:54:22;92830.22;;;14.12;100.00
6204;BME280;3135;42.602;23.468;2023-06-19T02:56:48;92820.53;;;14.02;100.00
6204;BME280;3135;42.602;23.468;2023-06-19T02:59:13;92826.56;;;14.08;100.00
6204;BME280;3135;42.602;23.468;2023-06-19T03:01:39;92837.78;;;14.10;100.00
6204;BME280;3135;42.602;23.468;2023-06-19T03:04:04;92830.81;;;14.09;100.00
6204;BME280;3135;42.602;23.468;2023-06-19T03:06:29;92807.31;;;13.84;100.00
6204;BME280;3135;42.602;23.468;2023-06-19T03:08:56;92828.84;;;13.92;100.00
6204;BME280;3135;42.602;23.468;2023-06-19T03:11:21;92839.63;;;14.01;100.00
6204;BME280;3135;42.602;23.468;2023-06-19T03:13:50;92840.88;;;13.95;100.00
6204;BME280;3135;42.602;23.468;2023-06-19T03:16:15;92798.59;;;13.78;100.00
6204;BME280;3135;42.602;23.468;2023-06-19T03:18:42;92813.41;;;13.98;100.00
6204;BME280;3135;42.602;23.468;2023-06-19T03:21:09;92822.28;;;14.07;100.00
6204;BME280;3135;42.602;23.468;2023-06-19T03:23:35;92817.84;;;14.11;100.00
6204;BME280;3135;42.602;23.468;2023-06-19T03:26:01;92805.00;;;13.99;100.00
6204;BME280;3135;42.602;23.468;2023-06-19T03:28:26;92828.13;;;14.09;100.00
6204;BME280;3135;42.602;23.468;2023-06-19T03:30:51;92808.34;;;14.05;100.00
6204;BME280;3135;42.602;23.468;2023-06-19T03:33:17;92815.66;;;14.13;100.00
6204;BME280;3135;42.602;23.468;2023-06-19T03:35:43;92827.22;;;14.14;100.00
6204;BME280;3135;42.602;23.468;2023-06-19T03:38:08;92814.41;;;14.19;100.00
6204;BME280;3135;42.602;23.468;2023-06-19T03:40:34;92819.47;;;14.12;100.00
6204;BME280;3135;42.602;23.468;2023-06-19T03:42:59;92790.16;;;14.02;100.00
6204;BME280;3135;42.602;23.468;2023-06-19T03:45:25;92831.88;;;14.30;100.00
6204;BME280;3135;42.602;23.468;2023-06-19T03:47:50;92824.31;;;14.41;100.00
6204;BME280;3135;42.602;23.468;2023-06-19T03:50:16;92825.84;;;14.33;100.00
6204;BME280;3135;42.602;23.468;2023-06-19T03:52:42;92803.06;;;14.22;100.00
6204;BME280;3135;42.602;23.468;2023-06-19T03:55:07;92828.81;;;14.54;100.00
6204;BME280;3135;42.602;23.468;2023-06-19T03:57:33;92804.91;;;14.53;100.00
6204;BME280;3135;42.602;23.468;2023-06-19T03:59:58;92829.63;;;14.72;100.00
6204;BME280;3135;42.602;23.468;2023-06-19T04:02:24;92823.63;;;14.75;100.00
6204;BME280;3135;42.602;23.468;2023-06-19T04:04:49;92801.44;;;14.61;100.00
6204;BME280;3135;42.602;23.468;2023-06-19T04:07:14;92798.13;;;14.64;100.00
6204;BME280;3135;42.602;23.468;2023-06-19T04:09:40;92816.19;;;14.81;100.00
6204;BME280;3135;42.602;23.468;2023-06-19T04:12:06;92832.03;;;14.91;100.00
6204;BME280;3135;42.602;23.468;2023-06-19T04:14:32;92818.25;;;14.75;100.00
6204;BME280;3135;42.602;23.468;2023-06-19T04:16:57;92826.03;;;15.03;100.00
6204;BME280;3135;42.602;23.468;2023-06-19T04:19:22;92819.53;;;15.13;100.00
6204;BME280;3135;42.602;23.468;2023-06-19T04:21:48;92834.75;;;15.26;100.00
6204;BME280;3135;42.602;23.468;2023-06-19T04:24:13;92817.66;;;15.22;100.00
6204;BME280;3135;42.602;23.468;2023-06-19T04:26:39;92833.97;;;15.25;100.00
6204;BME280;3135;42.602;23.468;2023-06-19T04:29:04;92836.16;;;15.41;100.00
6204;BME280;3135;42.602;23.468;2023-06-19T04:31:32;92828.09;;;15.32;100.00
6204;BME280;3135;42.602;23.468;2023-06-19T04:33:57;92829.84;;;15.54;100.00
6204;BME280;3135;42.602;23.468;2023-06-19T04:36:22;92820.97;;;15.45;100.00
6204;BME280;3135;42.602;23.468;2023-06-19T04:38:48;92833.63;;;15.70;100.00
6204;BME280;3135;42.602;23.468;2023-06-19T04:41:16;92832.66;;;15.83;100.00
6204;BME280;3135;42.602;23.468;2023-06-19T04:43:42;92821.41;;;15.81;100.00
6204;BME280;3135;42.602;23.468;2023-06-19T04:46:07;92832.63;;;16.01;100.00
6204;BME280;3135;42.602;23.468;2023-06-19T04:48:33;92818.41;;;15.83;100.00
6204;BME280;3135;42.602;23.468;2023-06-19T04:51:01;92832.28;;;16.11;100.00
6204;BME280;3135;42.602;23.468;2023-06-19T04:53:27;92839.22;;;16.21;100.00
6204;BME280;3135;42.602;23.468;2023-06-19T04:55:53;92815.28;;;16.19;100.00
6204;BME280;3135;42.602;23.468;2023-06-19T04:58:20;92821.25;;;16.33;100.00
6204;BME280;3135;42.602;23.468;2023-06-19T05:00:47;92812.25;;;16.21;100.00
6204;BME280;3135;42.602;23.468;2023-06-19T05:03:17;92837.56;;;16.37;100.00
6204;BME280;3135;42.602;23.468;2023-06-19T05:05:43;92819.59;;;16.41;100.00
6204;BME280;3135;42.602;23.468;2023-06-19T05:08:09;92813.63;;;16.65;100.00
6204;BME280;3135;42.602;23.468;2023-06-19T05:10:34;92835.44;;;16.90;100.00
6204;BME280;3135;42.602;23.468;2023-06-19T05:13:00;92827.22;;;17.07;100.00
6204;BME280;3135;42.602;23.468;2023-06-19T05:15:26;92836.56;;;17.09;100.00
6204;BME280;3135;42.602;23.468;2023-06-19T05:17:52;92838.53;;;17.21;100.00
6204;BME280;3135;42.602;23.468;2023-06-19T05:20:17;92783.16;;;16.94;100.00
6204;BME280;3135;42.602;23.468;2023-06-19T05:22:43;92823.59;;;17.24;100.00
6204;BME280;3135;42.602;23.468;2023-06-19T05:25:08;92827.63;;;17.18;100.00
6204;BME280;3135;42.602;23.468;2023-06-19T05:27:34;92824.25;;;17.21;100.00
6204;BME280;3135;42.602;23.468;2023-06-19T05:30:00;92844.66;;;17.30;100.00
6204;BME280;3135;42.602;23.468;2023-06-19T05:32:25;92839.28;;;17.30;100.00
6204;BME280;3135;42.602;23.468;2023-06-19T05:34:50;92854.94;;;17.58;100.00
6204;BME280;3135;42.602;23.468;2023-06-19T05:37:16;92780.91;;;17.17;100.00
6204;BME280;3135;42.602;23.468;2023-06-19T05:39:42;92832.53;;;17.78;100.00
6204;BME280;3135;42.602;23.468;2023-06-19T05:42:07;92862.69;;;18.01;100.00
6204;BME280;3135;42.602;23.468;2023-06-19T05:44:33;92868.13;;;18.13;100.00
6204;BME280;3135;42.602;23.468;2023-06-19T05:46:58;92856.06;;;18.11;100.00
6204;BME280;3135;42.602;23.468;2023-06-19T05:49:23;92857.09;;;18.19;100.00
6204;BME280;3135;42.602;23.468;2023-06-19T05:51:49;92858.94;;;18.27;100.00
6204;BME280;3135;42.602;23.468;2023-06-19T05:54:14;92866.28;;;18.51;100.00
6204;BME280;3135;42.602;23.468;2023-06-19T05:56:40;92861.22;;;18.49;100.00
6204;BME280;3135;42.602;23.468;2023-06-19T05:59:05;92863.47;;;18.47;100.00
6204;BME280;3135;42.602;23.468;2023-06-19T06:01:31;92862.34;;;18.48;100.00
6204;BME280;3135;42.602;23.468;2023-06-19T06:03:57;92866.66;;;18.49;100.00
6204;BME280;3135;42.602;23.468;2023-06-19T06:06:23;92866.69;;;18.74;100.00
6204;BME280;3135;42.602;23.468;2023-06-19T06:08:49;92869.75;;;18.97;100.00
6204;BME280;3135;42.602;23.468;2023-06-19T06:11:14;92868.56;;;19.10;100.00
6204;BME280;3135;42.602;23.468;2023-06-19T06:13:40;92868.81;;;19.17;100.00
6204;BME280;3135;42.602;23.468;2023-06-19T06:16:05;92876.06;;;19.01;100.00
6204;BME280;3135;42.602;23.468;2023-06-19T06:18:31;92881.69;;;19.08;100.00
6204;BME280;3135;42.602;23.468;2023-06-19T06:20:56;92886.97;;;19.04;100.00
6204;BME280;3135;42.602;23.468;2023-06-19T06:23:24;92883.13;;;19.30;100.00
6204;BME280;3135;42.602;23.468;2023-06-19T06:25:49;92882.34;;;19.29;100.00
6204;BME280;3135;42.602;23.468;2023-06-19T06:28:15;92872.50;;;19.37;100.00
6204;BME280;3135;42.602;23.468;2023-06-19T06:30:40;92881.84;;;19.64;100.00
6204;BME280;3135;42.602;23.468;2023-06-19T06:33:06;92863.31;;;19.66;100.00
6204;BME280;3135;42.602;23.468;2023-06-19T06:35:31;92877.34;;;19.96;100.00
6204;BME280;3135;42.602;23.468;2023-06-19T06:37:56;92883.34;;;20.17;100.00
6204;BME280;3135;42.602;23.468;2023-06-19T06:40:22;92889.50;;;20.46;100.00
6204;BME280;3135;42.602;23.468;2023-06-19T06:42:47;92879.06;;;20.60;100.00
6204;BME280;3135;42.602;23.468;2023-06-19T06:45:14;92887.66;;;20.62;100.00
6204;BME280;3135;42.602;23.468;2023-06-19T06:47:39;92897.19;;;20.56;100.00
6204;BME280;3135;42.602;23.468;2023-06-19T06:50:06;92876.59;;;20.55;100.00
6204;BME280;3135;42.602;23.468;2023-06-19T06:52:32;92896.75;;;21.02;100.00
6204;BME280;3135;42.602;23.468;2023-06-19T06:54:57;92904.91;;;21.33;100.00
6204;BME280;3135;42.602;23.468;2023-06-19T06:57:23;92902.09;;;21.46;100.00
6204;BME280;3135;42.602;23.468;2023-06-19T06:59:48;92902.44;;;21.28;100.00
6204;BME280;3135;42.602;23.468;2023-06-19T07:02:14;92901.38;;;21.17;100.00
6204;BME280;3135;42.602;23.468;2023-06-19T07:04:39;92916.91;;;21.48;100.00
6204;BME280;3135;42.602;23.468;2023-06-19T07:07:04;92918.66;;;21.56;100.00
6204;BME280;3135;42.602;23.468;2023-06-19T07:09:31;92913.47;;;21.86;100.00
6204;BME280;3135;42.602;23.468;2023-06-19T07:11:56;92904.03;;;22.00;100.00
6204;BME280;3135;42.602;23.468;2023-06-19T07:14:22;92921.41;;;21.95;100.00
6204;BME280;3135;42.602;23.468;2023-06-19T07:16:49;92913.53;;;22.09;100.00
6204;BME280;3135;42.602;23.468;2023-06-19T07:19:14;92908.69;;;21.99;100.00
6204;BME280;3135;42.602;23.468;2023-06-19T07:21:40;92911.78;;;22.17;100.00
6204;BME280;3135;42.602;23.468;2023-06-19T07:24:06;92920.16;;;22.47;100.00
6204;BME280;3135;42.602;23.468;2023-06-19T07:26:31;92909.19;;;22.24;100.00
6204;BME280;3135;42.602;23.468;2023-06-19T07:28:57;92926.22;;;22.60;100.00
6204;BME280;3135;42.602;23.468;2023-06-19T07:31:22;92911.63;;;22.29;100.00
6204;BME280;3135;42.602;23.468;2023-06-19T07:33:48;92843.44;;;22.03;100.00
6204;BME280;3135;42.602;23.468;2023-06-19T07:36:13;92937.25;;;22.67;100.00
6204;BME280;3135;42.602;23.468;2023-06-19T07:38:42;92917.31;;;22.40;100.00
6204;BME280;3135;42.602;23.468;2023-06-19T07:41:07;92926.06;;;22.53;100.00
6204;BME280;3135;42.602;23.468;2023-06-19T07:43:35;92940.91;;;22.75;100.00
6204;BME280;3135;42.602;23.468;2023-06-19T07:46:00;92921.22;;;22.85;100.00
6204;BME280;3135;42.602;23.468;2023-06-19T07:48:26;92930.22;;;23.08;100.00
6204;BME280;3135;42.602;23.468;2023-06-19T07:50:53;92936.59;;;23.16;100.00
6204;BME280;3135;42.602;23.468;2023-06-19T07:53:19;92942.84;;;23.43;98.98
6204;BME280;3135;42.602;23.468;2023-06-19T07:55:44;92928.41;;;23.65;96.02
6204;BME280;3135;42.602;23.468;2023-06-19T07:58:09;92931.81;;;23.85;95.30
6204;BME280;3135;42.602;23.468;2023-06-19T08:00:35;92941.25;;;23.65;97.14
6204;BME280;3135;42.602;23.468;2023-06-19T08:03:00;92910.22;;;23.73;95.92
6204;BME280;3135;42.602;23.468;2023-06-19T08:05:26;92918.50;;;24.10;99.23
6204;BME280;3135;42.602;23.468;2023-06-19T08:07:51;92924.53;;;24.27;94.90
6204;BME280;3135;42.602;23.468;2023-06-19T08:10:17;92939.84;;;25.02;100.00
6204;BME280;3135;42.602;23.468;2023-06-19T08:12:43;92944.91;;;25.00;91.92
6204;BME280;3135;42.602;23.468;2023-06-19T08:15:10;92946.06;;;24.62;93.42
6204;BME280;3135;42.602;23.468;2023-06-19T08:17:35;92933.16;;;24.29;94.90
6204;BME280;3135;42.602;23.468;2023-06-19T08:20:01;92926.84;;;24.55;91.68
6204;BME280;3135;42.602;23.468;2023-06-19T08:22:27;92929.63;;;24.58;92.14
6204;BME280;3135;42.602;23.468;2023-06-19T08:24:53;92910.22;;;24.33;89.81
6204;BME280;3135;42.602;23.468;2023-06-19T08:27:18;92946.41;;;24.94;85.91
6204;BME280;3135;42.602;23.468;2023-06-19T08:29:44;92939.84;;;25.02;83.25
6204;BME280;3135;42.602;23.468;2023-06-19T08:32:09;92944.56;;;25.46;81.43
6204;BME280;3135;42.602;23.468;2023-06-19T08:34:35;92933.75;;;25.16;85.48
6204;BME280;3135;42.602;23.468;2023-06-19T08:37:02;92945.03;;;25.55;84.41
6204;BME280;3135;42.602;23.468;2023-06-19T08:39:27;92952.38;;;25.95;90.22
6204;BME280;3135;42.602;23.468;2023-06-19T08:41:52;92951.63;;;26.02;79.43
6204;BME280;3135;42.602;23.468;2023-06-19T08:44:21;92958.06;;;26.31;76.19
6204;BME280;3135;42.602;23.468;2023-06-19T08:46:46;92954.97;;;26.40;75.78
6204;BME280;3135;42.602;23.468;2023-06-19T08:49:12;92961.59;;;26.35;73.42
6204;BME280;3135;42.602;23.468;2023-06-19T08:51:38;92955.84;;;26.62;76.35
6204;BME280;3135;42.602;23.468;2023-06-19T08:54:06;92967.69;;;26.94;70.60
6204;BME280;3135;42.602;23.468;2023-06-19T08:56:32;92947.75;;;26.97;70.32
6204;BME280;3135;42.602;23.468;2023-06-19T08:59:15;92949.75;;;27.11;72.79
6204;BME280;3135;42.602;23.468;2023-06-19T09:01:51;92960.34;;;27.13;67.98
6204;BME280;3135;42.602;23.468;2023-06-19T09:04:23;92952.47;;;27.08;71.76
6204;BME280;3135;42.602;23.468;2023-06-19T09:06:50;92939.56;;;27.19;82.42
6204;BME280;3135;42.602;23.468;2023-06-19T09:09:17;92953.69;;;27.17;68.32
6204;BME280;3135;42.602;23.468;2023-06-19T09:11:42;92957.63;;;27.56;69.40
6204;BME280;3135;42.602;23.468;2023-06-19T09:14:11;92958.00;;;27.11;66.13
6204;BME280;3135;42.602;23.468;2023-06-19T09:16:38;92936.66;;;26.62;67.56
6204;BME280;3135;42.602;23.468;2023-06-19T09:19:04;92939.50;;;26.94;69.93
6204;BME280;3135;42.602;23.468;2023-06-19T09:21:30;92947.41;;;27.24;69.85
6204;BME280;3135;42.602;23.468;2023-06-19T09:24:02;92945.88;;;27.55;68.75
6204;BME280;3135;42.602;23.468;2023-06-19T09:26:28;92944.31;;;27.83;71.40
6204;BME280;3135;42.602;23.468;2023-06-19T09:28:53;92939.59;;;27.90;68.22
6204;BME280;3135;42.602;23.468;2023-06-19T09:31:18;92947.44;;;27.88;65.89
6204;BME280;3135;42.602;23.468;2023-06-19T09:33:44;92938.81;;;27.93;65.71
6204;BME280;3135;42.602;23.468;2023-06-19T09:36:09;92927.81;;;27.90;63.97
6204;BME280;3135;42.602;23.468;2023-06-19T09:38:36;92948.19;;;27.99;66.32
6204;BME280;3135;42.602;23.468;2023-06-19T09:41:08;92945.41;;;28.21;63.86
6204;BME280;3135;42.602;23.468;2023-06-19T09:43:42;92932.75;;;28.56;66.88
6204;BME280;3135;42.602;23.468;2023-06-19T09:46:09;92947.41;;;29.19;62.07
6204;BME280;3135;42.602;23.468;2023-06-19T09:48:35;92941.00;;;28.63;62.31
6204;BME280;3135;42.602;23.468;2023-06-19T09:51:18;92932.88;;;28.16;63.16
6204;BME280;3135;42.602;23.468;2023-06-19T09:53:48;92938.72;;;28.36;65.34
6204;BME280;3135;42.602;23.468;2023-06-19T09:56:15;92936.03;;;28.15;66.97
6204;BME280;3135;42.602;23.468;2023-06-19T09:58:42;92948.94;;;28.39;62.17
6204;BME280;3135;42.602;23.468;2023-06-19T10:01:09;92928.56;;;28.15;61.52
6204;BME280;3135;42.602;23.468;2023-06-19T10:03:35;92936.84;;;27.90;63.51
6204;BME280;3135;42.602;23.468;2023-06-19T10:06:02;92941.06;;;28.41;63.13
6204;BME280;3135;42.602;23.468;2023-06-19T10:08:39;92944.22;;;28.25;64.08
6204;BME280;3135;42.602;23.468;2023-06-19T10:11:04;92931.13;;;28.65;60.39
6204;BME280;3135;42.602;23.468;2023-06-19T10:13:35;92936.97;;;28.85;57.89
6204;BME280;3135;42.602;23.468;2023-06-19T10:16:04;92929.34;;;28.09;59.41
6204;BME280;3135;42.602;23.468;2023-06-19T10:18:32;92929.72;;;28.18;58.18
6204;BME280;3135;42.602;23.468;2023-06-19T10:20:57;92920.66;;;28.35;60.17
6204;BME280;3135;42.602;23.468;2023-06-19T10:23:25;92929.63;;;28.61;60.98
6204;BME280;3135;42.602;23.468;2023-06-19T10:25:59;92932.59;;;28.91;57.01
6204;BME280;3135;42.602;23.468;2023-06-19T10:28:29;92921.09;;;29.11;54.67
6204;BME280;3135;42.602;23.468;2023-06-19T10:33:32;92918.69;;;28.39;60.45
6204;BME280;3135;42.602;23.468;2023-06-19T10:35:59;92908.13;;;28.20;54.82
6204;BME280;3135;42.602;23.468;2023-06-19T10:38:26;92902.78;;;28.83;52.80
6204;BME280;3135;42.602;23.468;2023-06-19T10:40:52;92913.59;;;29.22;48.59
6204;BME280;3135;42.602;23.468;2023-06-19T10:43:22;92918.75;;;29.13;48.27
6204;BME280;3135;42.602;23.468;2023-06-19T10:45:53;92913.56;;;28.48;49.22
6204;BME280;3135;42.602;23.468;2023-06-19T10:48:23;92890.63;;;28.80;49.06
6204;BME280;3135;42.602;23.468;2023-06-19T10:50:49;92913.59;;;29.22;49.44
6204;BME280;3135;42.602;23.468;2023-06-19T10:53:30;92928.84;;;29.30;48.64
6204;BME280;3135;42.602;23.468;2023-06-19T10:55:57;92916.28;;;29.29;48.59
6204;BME280;3135;42.602;23.468;2023-06-19T10:58:24;92915.13;;;29.23;46.26
6204;BME280;3135;42.602;23.468;2023-06-19T11:00:49;92904.81;;;28.68;49.61
6204;BME280;3135;42.602;23.468;2023-06-19T11:03:15;92914.75;;;29.21;46.88
6204;BME280;3135;42.602;23.468;2023-06-19T11:05:44;92902.19;;;29.68;51.58
6204;BME280;3135;42.602;23.468;2023-06-19T11:08:10;92911.19;;;29.76;48.96
6204;BME280;3135;42.602;23.468;2023-06-19T11:10:35;92907.16;;;29.39;53.29
6204;BME280;3135;42.602;23.468;2023-06-19T11:13:01;92909.88;;;29.43;51.10
6204;BME280;3135;42.602;23.468;2023-06-19T11:15:34;92912.19;;;29.96;50.07
6204;BME280;3135;42.602;23.468;2023-06-19T11:18:01;92897.81;;;30.16;48.35
6204;BME280;3135;42.602;23.468;2023-06-19T11:20:27;92903.72;;;30.52;46.64
6204;BME280;3135;42.602;23.468;2023-06-19T11:23:00;92896.22;;;30.52;49.25
6204;BME280;3135;42.602;23.468;2023-06-19T11:25:36;92892.53;;;30.32;50.13
6204;BME280;3135;42.602;23.468;2023-06-19T11:28:03;92879.03;;;30.41;55.84
6204;BME280;3135;42.602;23.468;2023-06-19T11:30:33;92900.22;;;31.09;50.91
6204;BME280;3135;42.602;23.468;2023-06-19T11:32:58;92899.97;;;30.73;49.38
6204;BME280;3135;42.602;23.468;2023-06-19T11:35:24;92892.16;;;30.30;50.61
6204;BME280;3135;42.602;23.468;2023-06-19T11:37:51;92901.34;;;30.20;52.85
6204;BME280;3135;42.602;23.468;2023-06-19T11:40:16;92892.06;;;29.99;54.00
6204;BME280;3135;42.602;23.468;2023-06-19T11:42:49;92891.31;;;29.95;53.13
6204;BME280;3135;42.602;23.468;2023-06-19T11:45:14;92873.22;;;29.57;59.55
6204;BME280;3135;42.602;23.468;2023-06-19T11:47:40;92900.13;;;29.83;52.16
6204;BME280;3135;42.602;23.468;2023-06-19T11:50:06;92894.31;;;29.74;53.71
6204;BME280;3135;42.602;23.468;2023-06-19T11:52:32;92868.53;;;28.94;54.80
6204;BME280;3135;42.602;23.468;2023-06-19T11:54:58;92880.34;;;28.88;57.68
6204;BME280;3135;42.602;23.468;2023-06-19T11:57:23;92859.28;;;28.63;57.82
6204;BME280;3135;42.602;23.468;2023-06-19T11:59:49;92847.59;;;28.41;56.88
6204;BME280;3135;42.602;23.468;2023-06-19T12:02:14;92882.03;;;28.71;58.61
6204;BME280;3135;42.602;23.468;2023-06-19T12:04:40;92884.09;;;29.19;54.68
6204;BME280;3135;42.602;23.468;2023-06-19T12:07:05;92885.34;;;29.63;53.51
6204;BME280;3135;42.602;23.468;2023-06-19T12:09:31;92872.88;;;29.47;52.39
6204;BME280;3135;42.602;23.468;2023-06-19T12:11:59;92871.81;;;29.31;55.52
6204;BME280;3135;42.602;23.468;2023-06-19T12:14:26;92876.38;;;28.99;61.83
6204;BME280;3135;42.602;23.468;2023-06-19T12:16:51;92855.13;;;29.03;58.45
6204;BME280;3135;42.602;23.468;2023-06-19T12:19:17;92880.16;;;29.20;55.24
6204;BME280;3135;42.602;23.468;2023-06-19T12:21:42;92871.47;;;29.21;55.31
6204;BME280;3135;42.602;23.468;2023-06-19T12:24:08;92865.53;;;28.71;57.15
6204;BME280;3135;42.602;23.468;2023-06-19T12:26:35;92871.53;;;28.51;56.84
6204;BME280;3135;42.602;23.468;2023-06-19T12:29:05;92881.31;;;28.56;60.90
6204;BME280;3135;42.602;23.468;2023-06-19T12:31:32;92879.09;;;28.12;60.88
6204;BME280;3135;42.602;23.468;2023-06-19T12:33:57;92867.69;;;28.20;64.67
6204;BME280;3135;42.602;23.468;2023-06-19T12:36:23;92834.72;;;28.17;60.43
6204;BME280;3135;42.602;23.468;2023-06-19T12:38:49;92857.84;;;28.37;56.30
6204;BME280;3135;42.602;23.468;2023-06-19T12:41:14;92857.03;;;28.40;59.47
6204;BME280;3135;42.602;23.468;2023-06-19T12:43:40;92871.19;;;28.35;57.22
6204;BME280;3135;42.602;23.468;2023-06-19T12:46:05;92819.13;;;27.92;61.37
6204;BME280;3135;42.602;23.468;2023-06-19T12:48:32;92861.78;;;28.22;57.44
6204;BME280;3135;42.602;23.468;2023-06-19T12:50:57;92864.22;;;28.02;60.42
6204;BME280;3135;42.602;23.468;2023-06-19T12:53:23;92853.28;;;27.84;60.48
6204;BME280;3135;42.602;23.468;2023-06-19T12:55:52;92863.34;;;28.26;59.80
6204;BME280;3135;42.602;23.468;2023-06-19T12:58:18;92860.91;;;28.53;61.01
6204;BME280;3135;42.602;23.468;2023-06-19T13:00:44;92851.03;;;28.63;59.47
6204;BME280;3135;42.602;23.468;2023-06-19T13:03:09;92858.47;;;28.66;57.32
6204;BME280;3135;42.602;23.468;2023-06-19T13:05:35;92860.78;;;28.75;63.25